Time;durP1;ratioP1;P1;durP2;ratioP2;P2;SDS_P1;SDS_P2;PMS_P1;PMS_P2;Temp;Humidity;BMP_temperature;BMP_pressure;BME280_temperature;BME280_humidity;BME280_pressure;Samples;Min_cycle;Max_cycle;Signal;HPM_P1;HPM_P2
2021/06/21 00:00:43;;;;;;;;;14.20;13.20;;;;;27.95;47.81;98234.13;6177391;28;124778;-62
2021/06/21 00:03:48;;;;;;;;;15.00;15.00;;;;;27.89;48.17;98228.03;6171967;28;124805;-62
2021/06/21 00:06:51;;;;;;;;;16.25;15.25;;;;;27.79;48.40;98233.25;6163120;28;128253;-62
2021/06/21 00:09:54;;;;;;;;;15.20;15.00;;;;;27.79;48.31;98233.25;6186326;28;126071;-62
2021/06/21 00:12:59;;;;;;;;;17.40;16.00;;;;;27.72;48.39;98230.25;6187501;28;124725;-62
2021/06/21 00:16:02;;;;;;;;;14.75;14.00;;;;;27.55;48.47;98214.72;6186256;28;126214;-62
2021/06/21 00:19:05;;;;;;;;;16.40;14.40;;;;;27.58;48.78;98219.56;6176349;28;123839;-62
2021/06/21 00:22:08;;;;;;;;;18.60;17.40;;;;;27.55;49.14;98212.78;6177502;28;123567;-62
2021/06/21 00:25:13;;;;;;;;;18.00;17.00;;;;;27.48;49.26;98200.63;6186654;28;125035;-62
2021/06/21 00:28:19;;;;;;;;;17.00;15.00;;;;;27.40;49.33;98196.84;6184810;28;126169;-63
2021/06/21 00:31:22;;;;;;;;;16.40;15.40;;;;;27.38;49.42;98192.78;6184671;28;125921;-62
2021/06/21 00:34:26;;;;;;;;;15.00;14.40;;;;;27.36;49.18;98193.16;6178246;28;124209;-62
2021/06/21 00:37:29;;;;;;;;;16.00;14.80;;;;;27.34;49.56;98198.22;6181201;28;125072;-62
2021/06/21 00:40:33;;;;;;;;;18.00;16.00;;;;;27.32;49.39;98199.75;6169795;28;125678;-62
2021/06/21 00:43:37;;;;;;;;;17.00;16.00;;;;;27.35;49.50;98199.03;6164538;28;126917;-62
2021/06/21 00:46:40;;;;;;;;;17.50;17.00;;;;;27.34;49.36;98203.78;6175110;28;124649;-62
2021/06/21 00:49:43;;;;;;;;;17.00;16.00;;;;;27.34;49.46;98198.22;6180017;28;124386;-63
2021/06/21 00:52:47;;;;;;;;;15.60;15.00;;;;;27.25;49.48;98182.91;6182838;28;126996;-63
2021/06/21 00:55:50;;;;;;;;;17.00;14.00;;;;;27.34;49.51;98183.59;6185932;28;126019;-62
2021/06/21 00:59:00;;;;;;;;;18.00;17.00;;;;;27.31;49.57;98178.75;6176808;28;126358;-62
2021/06/21 01:02:04;;;;;;;;;17.00;16.60;;;;;27.27;49.86;98169.53;6172992;28;125919;-62
2021/06/21 01:05:10;;;;;;;;;18.00;17.40;;;;;27.13;49.92;98161.56;6184907;28;126127;-62
2021/06/21 01:08:13;;;;;;;;;15.00;14.80;;;;;27.14;50.27;98168.72;6184510;28;124641;-62
2021/06/21 01:11:18;;;;;;;;;16.00;16.00;;;;;26.99;50.55;98163.91;6183999;28;127053;-62
2021/06/21 01:14:28;;;;;;;;;18.00;18.00;;;;;26.88;50.98;98160.78;6185868;28;124664;-63
2021/06/21 01:17:35;;;;;;;;;18.00;17.00;;;;;26.80;51.07;98153.38;6184989;28;124693;-62
2021/06/21 01:21:12;;;;;;;;;18.40;16.00;;;;;26.86;51.10;98145.69;6186063;28;124302;-62
2021/06/21 01:25:02;;;;;;;;;16.40;15.40;;;;;26.85;50.88;98144.88;6184041;28;124659;-62
2021/06/21 01:28:11;;;;;;;;;17.00;16.00;;;;;26.84;50.66;98139.66;6172157;28;124319;-62
2021/06/21 01:31:19;;;;;;;;;18.40;17.00;;;;;26.77;51.00;98128.41;6182975;28;125321;-62
2021/06/21 01:34:28;;;;;;;;;17.00;15.00;;;;;26.69;51.03;98119.03;6178486;28;126796;-62
2021/06/21 01:37:32;;;;;;;;;15.75;15.75;;;;;26.61;51.32;98106.97;6183812;28;124840;-62
2021/06/21 01:40:40;;;;;;;;;15.25;14.25;;;;;26.74;51.30;98127.13;6183474;28;124908;-62
2021/06/21 01:43:45;;;;;;;;;17.00;16.00;;;;;26.70;51.17;98132.53;6170719;28;125660;-62
2021/06/21 01:46:51;;;;;;;;;16.40;16.40;;;;;26.68;51.23;98129.31;6174763;28;125979;-62
2021/06/21 01:50:02;;;;;;;;;17.00;16.20;;;;;26.67;51.33;98121.38;6186378;28;124714;-62
2021/06/21 01:53:09;;;;;;;;;19.40;17.40;;;;;26.62;51.27;98116.88;6173292;28;125804;-63
2021/06/21 01:56:16;;;;;;;;;17.40;17.00;;;;;26.40;51.20;98091.63;6169943;28;124697;-62
2021/06/21 01:59:20;;;;;;;;;20.00;18.00;;;;;26.53;51.59;98118.16;6181489;28;126133;-62
2021/06/21 02:02:25;;;;;;;;;17.00;16.20;;;;;26.44;51.73;98107.16;6183620;28;125307;-62
2021/06/21 02:05:33;;;;;;;;;16.80;16.00;;;;;26.31;52.06;98094.50;6181425;28;125859;-62
2021/06/21 02:08:38;;;;;;;;;16.60;16.00;;;;;26.41;51.89;98113.41;6169789;28;125010;-62
2021/06/21 02:11:41;;;;;;;;;18.50;16.75;;;;;26.39;51.80;98114.91;6172261;28;124747;-62
2021/06/21 02:14:48;;;;;;;;;17.33;17.33;;;;;26.31;51.81;98113.84;6175435;28;128739;-62
2021/06/21 02:17:53;;;;;;;;;17.00;16.00;;;;;26.18;52.53;98106.66;6168930;28;124462;-62
2021/06/21 02:20:59;;;;;;;;;17.40;17.40;;;;;26.10;52.41;98102.03;6170955;28;126548;-62
2021/06/21 02:24:02;;;;;;;;;17.00;16.00;;;;;26.16;52.05;98095.13;6177025;28;125140;-62
2021/06/21 02:27:08;;;;;;;;;18.60;18.60;;;;;26.23;51.82;98095.41;6171814;28;124718;-62
2021/06/21 02:30:14;;;;;;;;;18.00;16.25;;;;;26.24;51.74;98102.56;6169107;28;126557;-62
2021/06/21 02:33:19;;;;;;;;;18.00;16.00;;;;;26.28;51.66;98104.31;6167921;28;125063;-62
2021/06/21 02:36:25;;;;;;;;;18.00;17.00;;;;;26.16;51.72;98092.38;6176626;28;126150;-62
2021/06/21 02:39:28;;;;;;;;;17.60;16.60;;;;;26.27;51.71;98099.91;6167689;28;126098;-62
2021/06/21 02:42:32;;;;;;;;;17.00;16.60;;;;;26.24;51.83;98103.34;6179431;28;126248;-62
2021/06/21 02:45:35;;;;;;;;;16.80;16.00;;;;;26.10;51.85;98071.63;6172715;28;126601;-62
2021/06/21 02:48:57;;;;;;;;;18.00;16.00;;;;;26.26;51.95;98095.53;6169562;28;97259;-62
2021/06/21 02:52:05;;;;;;;;;16.60;15.00;;;;;26.30;51.75;98095.66;6162998;28;123719;-62
2021/06/21 02:55:13;;;;;;;;;15.80;14.80;;;;;26.30;51.86;98101.16;6166903;28;126539;-62
2021/06/21 02:58:22;;;;;;;;;14.75;14.75;;;;;26.20;51.57;98079.47;6164798;28;126127;-62
2021/06/21 03:01:26;;;;;;;;;18.00;15.00;;;;;26.31;51.52;98097.25;6178818;28;125526;-62
2021/06/21 03:04:31;;;;;;;;;17.00;16.40;;;;;26.36;51.76;98101.75;6165041;28;124771;-62
2021/06/21 03:07:38;;;;;;;;;17.00;16.00;;;;;26.36;51.58;98113.63;6167014;28;124810;-62
2021/06/21 03:10:49;;;;;;;;;16.40;16.00;;;;;26.42;51.55;98111.44;6180621;28;125478;-62
2021/06/21 03:13:56;;;;;;;;;17.80;17.40;;;;;26.52;51.74;98111.00;6171666;28;124753;-63
2021/06/21 03:17:01;;;;;;;;;16.60;15.60;;;;;26.53;51.46;98118.94;6165717;28;125355;-63
2021/06/21 03:20:06;;;;;;;;;17.00;16.00;;;;;26.41;51.37;98090.47;6167261;28;124856;-63
2021/06/21 03:23:10;;;;;;;;;18.00;16.40;;;;;26.59;51.18;98112.03;6168103;28;124809;-63
2021/06/21 03:26:14;;;;;;;;;16.20;16.00;;;;;26.59;51.19;98106.50;6167441;28;125888;-63
2021/06/21 03:29:20;;;;;;;;;18.00;16.00;;;;;26.61;51.40;98112.50;6174875;28;123928;-63
2021/06/21 03:32:30;;;;;;;;;18.00;16.40;;;;;26.64;51.17;98113.75;6176911;28;124841;-63
2021/06/21 03:35:33;;;;;;;;;17.00;17.00;;;;;26.66;51.29;98115.03;6172782;28;126503;-63
2021/06/21 03:38:38;;;;;;;;;15.60;15.00;;;;;26.71;50.96;98117.56;6177070;28;126262;-63
2021/06/21 03:41:43;;;;;;;;;16.00;15.00;;;;;26.81;50.90;98115.47;6181196;28;126119;-63
2021/06/21 03:44:46;;;;;;;;;16.00;14.00;;;;;26.87;50.65;98116.91;6166001;28;124634;-63
2021/06/21 03:47:51;;;;;;;;;16.40;15.40;;;;;26.98;50.59;98109.72;6171614;28;125022;-63
2021/06/21 03:50:55;;;;;;;;;16.00;15.60;;;;;26.89;50.09;98084.97;6165258;28;127144;-63
2021/06/21 03:54:00;;;;;;;;;15.60;14.60;;;;;27.11;50.11;98114.91;6181492;28;124452;-63
2021/06/21 03:57:04;;;;;;;;;17.00;16.60;;;;;27.17;49.82;98121.78;6178002;28;126173;-63
2021/06/21 04:00:10;;;;;;;;;16.60;16.60;;;;;27.17;50.15;98121.00;6165945;28;124762;-63
2021/06/21 04:03:16;;;;;;;;;18.00;17.00;;;;;27.15;49.96;98109.47;6181588;28;124643;-63
2021/06/21 04:06:20;;;;;;;;;16.00;15.20;;;;;27.13;50.01;98098.75;6171832;28;125928;-63
2021/06/21 04:09:24;;;;;;;;;15.60;15.20;;;;;27.29;49.87;98118.19;6176441;28;125006;-63
2021/06/21 04:12:28;;;;;;;;;18.00;17.25;;;;;27.32;49.85;98125.03;6171218;28;125742;-63
2021/06/21 04:15:32;;;;;;;;;19.00;17.00;;;;;27.26;50.17;98118.09;6173046;28;126361;-63
2021/06/21 04:18:35;;;;;;;;;17.00;16.00;;;;;27.30;49.87;98122.59;6162301;28;126519;-63
2021/06/21 04:21:38;;;;;;;;;17.00;16.40;;;;;27.40;49.54;98124.06;6165087;28;126959;-63
2021/06/21 04:24:43;;;;;;;;;18.00;17.00;;;;;27.43;49.79;98124.16;6171337;28;125086;-63
2021/06/21 04:27:46;;;;;;;;;18.00;17.00;;;;;27.50;49.63;98131.91;6183081;28;125929;-63
2021/06/21 04:30:49;;;;;;;;;18.00;17.00;;;;;27.57;49.68;98130.13;6163559;28;125021;-63
2021/06/21 04:33:52;;;;;;;;;18.40;17.40;;;;;27.66;49.31;98127.22;6183034;28;125068;-63
2021/06/21 04:36:56;;;;;;;;;18.00;17.00;;;;;27.73;49.45;98124.66;6169858;28;126239;-63
2021/06/21 04:40:02;;;;;;;;;18.60;17.00;;;;;27.82;48.77;98125.31;6185799;28;125016;-63
2021/06/21 04:43:05;;;;;;;;;18.00;17.00;;;;;27.91;48.76;98123.19;6186206;28;124413;-63
2021/06/21 04:46:08;;;;;;;;;16.00;16.00;;;;;27.97;48.75;98129.28;6186111;28;124722;-63
2021/06/21 04:49:13;;;;;;;;;16.60;16.00;;;;;28.01;48.68;98147.63;6186058;28;126111;-63
2021/06/21 04:52:18;;;;;;;;;18.00;17.20;;;;;28.11;49.10;98140.78;6167866;28;125458;-63
2021/06/21 04:55:23;;;;;;;;;17.00;16.00;;;;;28.20;48.85;98137.88;6172576;28;124414;-63
2021/06/21 04:58:34;;;;;;;;;17.00;17.00;;;;;28.24;48.16;98147.88;6163897;28;125691;-63
2021/06/21 05:01:37;;;;;;;;;15.80;15.00;;;;;28.31;48.44;98152.78;6188018;28;126401;-63
2021/06/21 05:04:40;;;;;;;;;17.60;17.00;;;;;28.41;48.23;98161.41;6187974;28;124021;-63
2021/06/21 05:07:46;;;;;;;;;18.00;18.00;;;;;28.42;48.08;98154.69;6180447;28;124828;-63
2021/06/21 05:10:51;;;;;;;;;19.00;17.00;;;;;28.49;48.09;98143.00;6169837;28;125677;-63
2021/06/21 05:13:54;;;;;;;;;16.00;16.00;;;;;28.55;47.66;98151.81;6174032;28;125160;-63
2021/06/21 05:16:58;;;;;;;;;17.00;16.40;;;;;28.52;48.01;98122.84;6162857;28;125918;-63
2021/06/21 05:20:01;;;;;;;;;20.25;18.00;;;;;28.78;48.15;98158.41;6170656;28;124612;-63
2021/06/21 05:23:04;;;;;;;;;18.00;16.00;;;;;28.80;47.16;98156.88;6176109;28;126181;-63
2021/06/21 05:26:09;;;;;;;;;18.50;18.00;;;;;28.85;46.81;98145.50;6178772;28;124758;-63
2021/06/21 05:29:12;;;;;;;;;17.80;16.00;;;;;28.93;46.81;98142.91;6165879;28;125532;-63
2021/06/21 05:32:15;;;;;;;;;16.00;15.00;;;;;28.99;47.24;98152.53;6173305;28;126083;-63
2021/06/21 05:35:20;;;;;;;;;16.00;16.00;;;;;29.02;46.95;98151.84;6162971;28;126713;-63
2021/06/21 05:38:25;;;;;;;;;16.50;16.50;;;;;29.10;46.95;98146.09;6164559;28;124677;-63
2021/06/21 05:41:30;;;;;;;;;14.00;14.00;;;;;29.21;46.82;98143.56;6163070;28;124794;-63
2021/06/21 05:44:35;;;;;;;;;18.50;17.00;;;;;29.28;46.25;98150.06;6163204;28;126294;-63
2021/06/21 05:47:39;;;;;;;;;16.75;15.00;;;;;29.29;46.32;98154.47;6161704;28;123925;-63
2021/06/21 05:50:42;;;;;;;;;14.00;13.00;;;;;29.42;46.32;98151.59;6161787;28;124858;-64
2021/06/21 05:53:46;;;;;;;;;14.00;13.40;;;;;29.61;45.77;98149.66;6184919;28;126185;-63
2021/06/21 05:56:50;;;;;;;;;15.00;15.00;;;;;29.77;46.00;98143.19;6181364;28;124840;-63
2021/06/21 05:59:54;;;;;;;;;15.40;14.60;;;;;29.85;45.10;98143.00;6177462;28;126380;-63
2021/06/21 06:02:57;;;;;;;;;16.00;15.00;;;;;30.00;45.35;98142.13;6167692;28;126484;-63
2021/06/21 06:06:01;;;;;;;;;15.00;14.40;;;;;30.07;45.42;98136.69;6177274;28;125000;-63
2021/06/21 06:09:04;;;;;;;;;14.00;13.00;;;;;30.21;44.84;98136.16;6154621;28;126307;-63
2021/06/21 06:12:10;;;;;;;;;15.00;14.00;;;;;30.26;44.82;98135.03;6166744;28;126296;-63
2021/06/21 06:15:15;;;;;;;;;14.00;13.00;;;;;30.40;44.73;98144.44;6185441;28;126684;-63
2021/06/21 06:18:18;;;;;;;;;13.20;12.80;;;;;30.42;44.25;98127.41;6184966;28;125276;-63
2021/06/21 06:21:22;;;;;;;;;12.00;12.00;;;;;30.66;43.79;98143.75;6185290;28;124693;-63
2021/06/21 06:24:26;;;;;;;;;13.00;12.00;;;;;30.82;44.05;98154.75;6183313;28;123605;-63
2021/06/21 06:27:30;;;;;;;;;14.40;12.80;;;;;30.93;43.67;98147.38;6176638;28;125850;-64
2021/06/21 06:30:35;;;;;;;;;11.80;11.00;;;;;30.95;42.49;98145.81;6184198;28;125922;-63
2021/06/21 06:33:38;;;;;;;;;13.60;13.00;;;;;30.94;42.71;98137.81;6182414;28;125831;-64
2021/06/21 06:36:42;;;;;;;;;13.40;12.00;;;;;30.94;43.04;98151.75;6180689;28;126085;-64
2021/06/21 06:39:45;;;;;;;;;13.00;12.20;;;;;30.96;43.50;98138.28;6171218;28;126379;-64
2021/06/21 06:42:54;;;;;;;;;12.00;11.60;;;;;31.06;42.89;98137.66;6174099;28;126136;-64
2021/06/21 06:45:57;;;;;;;;;12.40;12.00;;;;;31.18;43.06;98136.66;6169545;28;124501;-64
2021/06/21 06:49:00;;;;;;;;;11.00;10.00;;;;;31.12;41.84;98125.03;6175853;28;126558;-64
2021/06/21 06:52:05;;;;;;;;;13.50;12.50;;;;;31.33;41.79;98132.88;6173821;28;126016;-64
2021/06/21 06:58:31;;;;;;;;;10.00;9.60;;;;;31.47;42.15;98127.53;6173021;28;126059;-64
2021/06/21 07:01:34;;;;;;;;;11.80;11.00;;;;;31.51;41.93;98124.78;6169674;28;126045;-66
2021/06/21 07:04:38;;;;;;;;;12.00;10.00;;;;;31.45;41.60;98141.00;6175674;28;126007;-62
2021/06/21 07:07:42;;;;;;;;;12.20;11.20;;;;;31.42;41.57;98118.69;6172060;28;127067;-62
2021/06/21 07:10:45;;;;;;;;;13.00;12.00;;;;;31.59;41.26;98109.78;6170379;28;126406;-62
2021/06/21 07:13:49;;;;;;;;;11.60;11.00;;;;;31.78;41.50;98129.91;6177127;28;124697;-62
2021/06/21 07:16:53;;;;;;;;;13.20;12.00;;;;;31.76;40.70;98126.72;6170563;28;125706;-61
2021/06/21 07:19:57;;;;;;;;;11.00;10.00;;;;;31.81;41.34;98120.78;6174258;28;125568;-61
2021/06/21 07:23:00;;;;;;;;;12.00;11.40;;;;;32.03;40.72;98126.63;6171695;28;125759;-61
2021/06/21 07:26:05;;;;;;;;;11.00;10.20;;;;;32.09;39.68;98111.97;6179567;28;126783;-61
2021/06/21 07:29:10;;;;;;;;;10.80;10.80;;;;;32.21;39.74;98120.06;6184973;28;127098;-61
2021/06/21 07:32:14;;;;;;;;;11.00;11.00;;;;;32.35;39.69;98125.00;6185224;28;126312;-61
2021/06/21 07:35:17;;;;;;;;;10.00;9.60;;;;;32.23;39.18;98128.06;6184493;28;126527;-61
2021/06/21 07:38:21;;;;;;;;;11.50;11.00;;;;;32.26;39.37;98124.50;6174564;28;126747;-61
2021/06/21 07:41:24;;;;;;;;;9.60;9.00;;;;;32.40;38.15;98121.06;6167278;28;124918;-61
2021/06/21 07:44:30;;;;;;;;;10.60;10.20;;;;;32.35;39.18;98096.31;6164997;28;126309;-62
2021/06/21 07:47:33;;;;;;;;;12.00;10.00;;;;;32.71;39.55;98109.41;6163559;28;124536;-61
2021/06/21 07:50:37;;;;;;;;;14.00;12.00;;;;;32.89;38.53;98103.97;6159177;28;126015;-61
2021/06/21 07:53:41;;;;;;;;;11.00;11.00;;;;;33.16;37.71;98102.56;6165706;28;125618;-62
2021/06/21 07:56:44;;;;;;;;;9.60;8.60;;;;;33.31;36.84;98097.84;6167385;28;126394;-62
2021/06/21 07:59:49;;;;;;;;;10.00;9.00;;;;;33.49;36.42;98098.75;6188977;28;125738;-62
2021/06/21 08:02:53;;;;;;;;;10.00;9.00;;;;;33.65;35.88;98107.59;6189042;28;124719;-62
2021/06/21 08:06:00;;;;;;;;;9.00;9.00;;;;;33.64;35.78;98111.59;6188593;28;125820;-62
2021/06/21 08:09:05;;;;;;;;;12.00;11.00;;;;;33.75;35.52;98112.47;6189064;28;124741;-62
2021/06/21 08:12:09;;;;;;;;;10.00;10.00;;;;;33.85;34.98;98117.31;6179003;28;125468;-62
2021/06/21 08:15:15;;;;;;;;;11.60;11.00;;;;;33.71;34.27;98114.47;6189046;28;124949;-62
2021/06/21 08:18:19;;;;;;;;;10.00;9.00;;;;;33.72;34.25;98118.84;6189533;28;125957;-62
2021/06/21 08:21:22;;;;;;;;;10.00;10.00;;;;;33.77;34.93;98114.88;6189224;28;127071;-62
2021/06/21 08:24:25;;;;;;;;;10.80;10.00;;;;;33.98;34.91;98120.53;6183491;28;126174;-62
2021/06/21 08:27:30;;;;;;;;;11.00;10.00;;;;;34.04;34.71;98127.34;6173999;28;124472;-62
2021/06/21 08:30:36;;;;;;;;;9.75;8.75;;;;;34.13;34.04;98122.16;6189263;28;126811;-62
2021/06/21 08:33:39;;;;;;;;;10.00;10.00;;;;;34.35;33.51;98123.06;6175521;28;125049;-62
2021/06/21 08:36:42;;;;;;;;;9.50;9.00;;;;;34.70;34.33;98114.69;6183833;28;123941;-62
2021/06/21 08:39:46;;;;;;;;;11.00;9.00;;;;;34.98;32.82;98133.50;6189006;28;126092;-62
2021/06/21 08:42:49;;;;;;;;;9.50;9.00;;;;;35.25;33.22;98127.47;6187217;28;126887;-62
2021/06/21 08:45:53;;;;;;;;;9.00;9.00;;;;;35.45;32.54;98123.03;6164357;28;125424;-62
2021/06/21 08:48:59;;;;;;;;;11.00;9.00;;;;;35.67;31.43;98112.56;6164055;28;126547;-62
2021/06/21 08:52:03;;;;;;;;;11.00;10.00;;;;;35.64;31.45;98108.53;6164154;28;124841;-62
2021/06/21 08:55:08;;;;;;;;;11.00;11.00;;;;;35.61;32.33;98107.34;6163991;28;125960;-62
2021/06/21 08:58:11;;;;;;;;;11.00;9.00;;;;;35.78;32.29;98104.88;6163967;28;125855;-62
2021/06/21 09:01:16;;;;;;;;;12.00;10.00;;;;;35.85;30.86;98094.44;6163851;28;126020;-62
2021/06/21 09:04:22;;;;;;;;;9.20;9.20;;;;;36.04;30.45;98110.78;6178499;28;127027;-62
2021/06/21 09:07:29;;;;;;;;;10.00;9.00;;;;;36.05;30.57;98111.56;6188557;28;124654;-62
2021/06/21 09:10:33;;;;;;;;;9.40;9.00;;;;;35.90;30.71;98102.44;6187656;28;126126;-62
2021/06/21 09:13:36;;;;;;;;;10.20;10.00;;;;;36.21;30.96;98114.72;6188345;28;126704;-62
2021/06/21 09:16:44;;;;;;;;;10.40;9.40;;;;;36.49;30.01;98110.91;6188234;28;126160;-62
2021/06/21 09:19:56;;;;;;;;;9.60;9.00;;;;;36.65;29.38;98110.44;6182462;28;126246;-62
2021/06/21 09:23:01;;;;;;;;;9.00;8.20;;;;;36.95;30.27;98110.53;6184153;28;125799;-62
2021/06/21 09:26:16;;;;;;;;;8.00;8.00;;;;;37.18;29.20;98102.34;6186446;28;126352;-62
2021/06/21 09:29:32;;;;;;;;;8.60;8.00;;;;;37.28;27.90;98093.00;6187945;28;125922;-62
2021/06/21 09:32:59;;;;;;;;;9.75;9.00;;;;;37.12;27.13;98108.81;6186761;28;126185;-62
2021/06/21 09:36:02;;;;;;;;;8.00;8.00;;;;;36.89;27.95;98101.78;6187997;28;124943;-62
2021/06/21 09:39:20;;;;;;;;;9.00;8.40;;;;;36.88;28.07;98100.19;6186807;28;123838;-62
2021/06/21 09:42:27;;;;;;;;;7.00;7.00;;;;;36.89;27.99;98090.53;6188140;28;125957;-62
2021/06/21 09:45:30;;;;;;;;;8.00;7.60;;;;;36.95;27.20;98098.53;6187428;28;126953;-61
2021/06/21 09:48:36;;;;;;;;;9.00;8.00;;;;;36.79;26.92;98088.63;6186206;28;125290;-61
2021/06/21 09:51:39;;;;;;;;;7.00;6.60;;;;;36.75;28.42;98085.03;6167535;28;126252;-61
2021/06/21 09:54:43;;;;;;;;;9.00;8.00;;;;;36.95;28.69;98085.25;6163119;28;127511;-61
2021/06/21 09:57:47;;;;;;;;;8.00;8.00;;;;;37.10;27.85;98083.94;6162387;28;126122;-61
2021/06/21 10:00:52;;;;;;;;;5.20;5.20;;;;;37.20;27.41;98068.16;6162381;28;124763;-61
2021/06/21 10:03:58;;;;;;;;;6.00;5.20;;;;;37.42;25.36;98083.59;6162503;28;124661;-61
2021/06/21 10:07:01;;;;;;;;;8.00;8.00;;;;;37.53;26.99;98078.66;6161282;28;126019;-61
2021/06/21 10:10:07;;;;;;;;;6.00;6.00;;;;;37.63;26.38;98083.34;6162319;28;125136;-61
2021/06/21 10:13:11;;;;;;;;;7.00;6.00;;;;;37.49;26.27;98071.44;6161120;28;124305;-61
2021/06/21 10:16:15;;;;;;;;;7.00;7.00;;;;;37.65;27.27;98074.50;6160934;28;123667;-61
2021/06/21 10:19:21;;;;;;;;;8.00;7.00;;;;;37.44;25.61;98055.03;6160900;28;123760;-61
2021/06/21 10:22:25;;;;;;;;;6.00;6.00;;;;;37.39;26.21;98058.34;6176819;28;124720;-61
2021/06/21 10:25:29;;;;;;;;;7.00;6.00;;;;;37.68;26.57;98059.59;6171226;28;126880;-61
2021/06/21 10:28:32;;;;;;;;;5.80;4.80;;;;;37.64;25.58;98044.75;6186494;28;126770;-61
2021/06/21 10:31:36;;;;;;;;;5.00;5.00;;;;;37.70;25.60;98060.75;6185237;28;125087;-61
2021/06/21 10:34:42;;;;;;;;;5.80;5.80;;;;;37.64;25.96;98067.25;6185596;28;125025;-61
2021/06/21 10:37:57;;;;;;;;;7.00;6.00;;;;;37.70;26.01;98060.75;6185132;28;124910;-61
2021/06/21 10:41:03;;;;;;;;;7.80;6.00;;;;;37.87;25.56;98064.56;6186453;28;127154;-61
2021/06/21 10:44:06;;;;;;;;;8.00;7.00;;;;;37.65;25.88;98024.66;6183511;28;126803;-61
2021/06/21 10:47:31;;;;;;;;;7.00;7.00;;;;;37.89;26.01;98059.28;6172761;28;127147;-61
2021/06/21 10:50:50;;;;;;;;;7.40;7.00;;;;;38.03;25.78;98052.69;6171402;28;126354;-61
2021/06/21 10:53:54;;;;;;;;;7.00;6.00;;;;;38.23;25.11;98049.97;6174257;28;97529;-61
2021/06/21 10:56:59;;;;;;;;;7.60;7.40;;;;;38.07;25.84;98054.22;6173924;28;124576;-61
2021/06/21 11:00:13;;;;;;;;;7.00;6.60;;;;;38.07;25.85;98045.78;6173585;28;126634;-61
2021/06/21 11:03:34;;;;;;;;;6.00;6.00;;;;;37.84;25.62;98048.50;6172666;28;125023;-61
2021/06/21 11:06:42;;;;;;;;;6.00;6.00;;;;;37.77;25.82;98033.75;6174195;28;124323;-61
2021/06/21 11:09:47;;;;;;;;;6.00;6.00;;;;;37.98;26.39;98027.81;6172810;28;124557;-61
2021/06/21 11:12:50;;;;;;;;;7.20;6.80;;;;;38.10;25.50;98032.88;6172756;28;125196;-61
2021/06/21 11:16:24;;;;;;;;;8.60;7.00;;;;;38.08;25.27;98024.88;6174152;28;124801;-61
2021/06/21 11:19:33;;;;;;;;;6.40;6.00;;;;;38.37;25.85;98032.84;6172117;28;124709;-61
2021/06/21 11:22:46;;;;;;;;;7.00;7.00;;;;;38.44;24.99;98030.75;6184710;28;125999;-61
2021/06/21 11:25:50;;;;;;;;;6.00;6.00;;;;;38.62;25.01;98024.81;6166290;28;124840;-61
2021/06/21 11:28:53;;;;;;;;;6.60;6.00;;;;;38.76;24.18;98027.38;6167832;28;124911;-61
2021/06/21 11:32:01;;;;;;;;;6.00;5.00;;;;;38.57;24.00;98014.81;6186277;28;125067;-61
2021/06/21 11:35:05;;;;;;;;;7.00;6.00;;;;;38.60;24.39;98027.28;6182761;28;123044;-61
2021/06/21 11:38:31;;;;;;;;;7.40;7.00;;;;;38.62;24.77;98021.19;6160763;28;126168;-61
2021/06/21 11:41:34;;;;;;;;;6.00;5.60;;;;;38.45;24.69;98012.66;6171101;28;124980;-61
2021/06/21 11:44:48;;;;;;;;;7.75;7.00;;;;;38.64;24.69;97997.00;6186072;28;127329;-61
2021/06/21 11:47:53;;;;;;;;;7.40;7.00;;;;;38.80;23.81;97999.94;6182034;28;126630;-61
2021/06/21 11:50:59;;;;;;;;;6.40;6.00;;;;;38.94;24.09;97994.06;6186300;28;124701;-61
2021/06/21 11:54:05;;;;;;;;;5.60;5.00;;;;;38.96;23.30;97990.78;6184588;28;124846;-61
2021/06/21 11:57:09;;;;;;;;;5.20;5.00;;;;;38.70;23.34;98005.78;6171073;28;126043;-61
2021/06/21 12:00:15;;;;;;;;;5.00;5.00;;;;;38.51;23.77;97994.00;6163396;28;126380;-61
2021/06/21 12:03:19;;;;;;;;;5.00;5.00;;;;;38.39;23.47;97997.41;6178542;28;125962;-61
2021/06/21 12:06:22;;;;;;;;;6.00;6.00;;;;;38.48;24.78;97994.88;6176375;28;126845;-61
2021/06/21 12:09:27;;;;;;;;;8.00;7.75;;;;;38.62;24.27;97981.75;6183037;28;124977;-61
2021/06/21 12:12:32;;;;;;;;;6.00;6.00;;;;;38.29;23.53;97967.44;6184435;28;127225;-61
2021/06/21 12:15:37;;;;;;;;;7.00;6.00;;;;;38.24;24.44;97959.47;6182484;28;126196;-61
2021/06/21 12:18:40;;;;;;;;;6.60;6.00;;;;;38.41;24.55;97978.09;6180105;28;124792;-61
2021/06/21 12:21:45;;;;;;;;;5.60;5.40;;;;;38.26;24.55;97979.56;6183760;28;126627;-61
2021/06/21 12:24:49;;;;;;;;;5.40;5.00;;;;;38.17;24.43;97967.25;6184234;28;124803;-61
2021/06/21 12:27:53;;;;;;;;;6.00;5.00;;;;;37.85;24.66;97962.88;6183046;28;125721;-61
2021/06/21 12:30:59;;;;;;;;;6.00;5.00;;;;;37.67;25.36;97973.63;6184491;28;126179;-61
2021/06/21 12:34:02;;;;;;;;;6.00;6.00;;;;;37.68;25.43;97975.22;6184009;28;124843;-61
2021/06/21 12:37:12;;;;;;;;;5.40;5.00;;;;;37.61;25.02;97969.69;6184426;28;126238;-61
2021/06/21 12:40:20;;;;;;;;;7.00;7.00;;;;;37.79;26.00;97966.59;6188020;28;125872;-61
2021/06/21 12:43:24;;;;;;;;;7.00;7.00;;;;;37.79;25.48;97967.41;6178923;28;124268;-61
2021/06/21 12:46:29;;;;;;;;;6.00;6.00;;;;;38.04;25.39;97958.59;6182197;28;125968;-61
2021/06/21 12:49:33;;;;;;;;;6.00;6.00;;;;;37.57;25.48;97960.50;6173513;28;127730;-61
2021/06/21 12:52:36;;;;;;;;;5.50;5.50;;;;;37.71;25.48;97955.47;6167222;28;126415;-61
2021/06/21 12:55:41;;;;;;;;;7.50;7.00;;;;;37.66;24.54;97964.38;6179299;28;126248;-61
2021/06/21 12:58:44;;;;;;;;;6.00;6.00;;;;;37.69;24.71;97959.91;6179282;28;124752;-61
2021/06/21 13:01:48;;;;;;;;;6.40;6.00;;;;;37.80;24.95;97954.13;6186903;28;123573;-61
2021/06/21 13:04:58;;;;;;;;;7.00;6.00;;;;;37.94;25.94;97957.50;6187836;28;125285;-61
2021/06/21 13:08:01;;;;;;;;;6.00;5.00;;;;;37.87;25.42;97960.47;6175630;28;124560;-61
2021/06/21 13:11:08;;;;;;;;;5.60;5.60;;;;;37.85;24.66;97959.28;6176956;28;126951;-61
2021/06/21 13:14:12;;;;;;;;;5.00;5.00;;;;;37.55;25.08;97943.25;6165257;28;126556;-61
2021/06/21 13:17:17;;;;;;;;;8.00;7.00;;;;;37.74;25.77;97948.97;6163397;28;124855;-61
2021/06/21 13:20:24;;;;;;;;;7.00;6.20;;;;;38.00;25.08;97953.03;6179616;28;124573;-61
2021/06/21 13:23:46;;;;;;;;;6.00;6.00;;;;;37.68;24.17;97955.53;6183477;28;125925;-61
2021/06/21 13:26:51;;;;;;;;;7.25;6.25;;;;;37.59;25.10;97947.59;6185722;28;125588;-61
2021/06/21 13:29:57;;;;;;;;;7.60;7.00;;;;;37.70;23.64;97948.25;6184799;28;125991;-61
2021/06/21 13:33:05;;;;;;;;;6.80;6.80;;;;;37.93;25.05;97943.88;6166944;28;124546;-61
2021/06/21 13:36:08;;;;;;;;;5.00;4.80;;;;;38.19;24.83;97943.06;6172390;28;126661;-61
2021/06/21 13:39:11;;;;;;;;;4.00;4.00;;;;;38.20;24.10;97939.03;6174269;28;126371;-61
2021/06/21 13:42:16;;;;;;;;;6.00;5.00;;;;;38.08;24.16;97934.78;6179027;28;125528;-61
2021/06/21 13:45:28;;;;;;;;;6.80;6.00;;;;;37.81;24.91;97925.56;6172244;28;126434;-61
2021/06/21 13:48:31;;;;;;;;;7.00;6.00;;;;;37.81;25.49;97936.03;6168230;28;124520;-61
2021/06/21 13:51:35;;;;;;;;;7.00;6.20;;;;;37.59;25.27;97922.28;6171872;28;126160;-61
2021/06/21 13:54:39;;;;;;;;;6.00;6.00;;;;;37.59;25.57;97916.66;6165655;28;126485;-60
2021/06/21 13:57:46;;;;;;;;;6.00;5.20;;;;;37.25;25.60;97924.34;6181808;28;126295;-61
2021/06/21 14:00:50;;;;;;;;;6.00;6.00;;;;;37.33;25.61;97931.50;6174298;28;124577;-61
2021/06/21 14:03:55;;;;;;;;;7.00;7.00;;;;;37.31;25.77;97911.44;6172688;28;124984;-61
2021/06/21 14:06:59;;;;;;;;;7.00;7.00;;;;;37.54;25.25;97914.31;6180287;28;124964;-61
2021/06/21 14:10:04;;;;;;;;;8.00;7.00;;;;;37.43;24.66;97930.53;6182185;28;127087;-61
2021/06/21 14:13:08;;;;;;;;;7.00;6.50;;;;;37.23;24.37;97933.22;6185932;28;124395;-61
2021/06/21 14:16:14;;;;;;;;;8.40;8.00;;;;;37.22;25.19;97928.00;6182188;28;125942;-61